Time;durP1;ratioP1;P1;durP2;ratioP2;P2;SDS_P1;SDS_P2;PMS_P1;PMS_P2;Temp;Humidity;BMP_temperature;BMP_pressure;BME280_temperature;BME280_humidity;BME280_pressure;Samples;Min_cycle;Max_cycle;Signal;HPM_P1;HPM_P2
2022/10/27 00:00:37;;;;;;;17.47;10.90;;;12.20;1.00;;;;;;6314210;22;20404;-77
2022/10/27 00:03:07;;;;;;;15.23;10.50;;;12.20;1.00;;;;;;6300958;22;20384;-80
2022/10/27 00:05:40;;;;;;;18.27;10.77;;;12.20;1.00;;;;;;6300579;22;20752;-78
2022/10/27 00:08:08;;;;;;;15.83;9.83;;;12.20;1.00;;;;;;6316947;22;20430;-81
2022/10/27 00:10:41;;;;;;;18.23;11.20;;;12.20;1.00;;;;;;6300439;22;20417;-83
2022/10/27 00:13:08;;;;;;;15.97;10.57;;;12.20;1.00;;;;;;6299637;22;20469;-76
2022/10/27 00:15:37;;;;;;;14.40;9.70;;;12.20;1.00;;;;;;6298500;22;21012;-80
2022/10/27 00:18:08;;;;;;;15.27;10.27;;;12.10;1.00;;;;;;6315258;22;21170;-84
2022/10/27 00:20:37;;;;;;;16.90;10.13;;;12.10;1.00;;;;;;6319430;22;20424;-84
2022/10/27 00:23:05;;;;;;;15.10;9.87;;;12.00;1.00;;;;;;6315249;22;20424;-83
2022/10/27 00:25:40;;;;;;;14.63;9.50;;;12.10;1.00;;;;;;6317426;22;20394;-77
2022/10/27 00:28:07;;;;;;;13.37;10.10;;;12.10;1.00;;;;;;6301620;22;20420;-85
2022/10/27 00:30:38;;;;;;;17.07;10.70;;;12.20;1.00;;;;;;6319694;22;20446;-83
2022/10/27 00:33:07;;;;;;;15.80;9.70;;;12.20;1.00;;;;;;6300381;22;20535;-86
2022/10/27 00:35:37;;;;;;;14.87;10.17;;;12.20;1.00;;;;;;6304054;22;20432;-86
2022/10/27 00:38:06;;;;;;;12.23;8.63;;;12.20;1.00;;;;;;6305605;22;20396;-84
2022/10/27 00:40:39;;;;;;;13.50;9.17;;;12.20;1.00;;;;;;6325422;22;20405;-82
2022/10/27 00:43:34;;;;;;;13.10;9.07;;;12.20;1.00;;;;;;6312632;22;20916;-82
2022/10/27 00:46:16;;;;;;;12.70;8.87;;;12.10;1.00;;;;;;6270231;22;20930;-82
2022/10/27 00:48:46;;;;;;;15.20;9.60;;;12.10;1.00;;;;;;6307553;22;20510;-83
2022/10/27 00:51:26;;;;;;;17.37;10.50;;;12.10;1.00;;;;;;6320448;22;20499;-82
2022/10/27 00:53:57;;;;;;;15.70;9.73;;;12.10;1.00;;;;;;6297641;22;20472;-84
2022/10/27 00:56:28;;;;;;;13.87;9.37;;;12.00;1.00;;;;;;6322000;22;20457;-82
2022/10/27 00:58:55;;;;;;;15.87;10.20;;;12.00;1.00;;;;;;6321688;22;20849;-83
2022/10/27 01:01:26;;;;;;;12.80;8.73;;;11.90;1.00;;;;;;6323935;22;20508;-85
2022/10/27 01:03:57;;;;;;;14.70;9.60;;;11.90;1.00;;;;;;6306034;22;20401;-84
2022/10/27 01:06:26;;;;;;;13.07;8.80;;;12.00;1.00;;;;;;6288831;22;20875;-81
2022/10/27 01:08:58;;;;;;;16.47;10.23;;;12.00;1.00;;;;;;6287133;22;20392;-85
2022/10/27 01:11:29;;;;;;;13.43;9.27;;;12.00;1.00;;;;;;6318868;22;20432;-85
2022/10/27 01:13:57;;;;;;;13.60;9.33;;;11.90;1.00;;;;;;6308986;22;20889;-82
2022/10/27 01:16:48;;;;;;;15.00;10.07;;;11.90;1.00;;;;;;6315633;22;20431;-78
2022/10/27 01:19:38;;;;;;;14.33;9.43;;;11.90;1.00;;;;;;6312474;22;20444;-78
2022/10/27 01:22:14;;;;;;;18.23;10.53;;;11.90;1.00;;;;;;6286791;22;20456;-78
2022/10/27 01:25:16;;;;;;;13.53;9.13;;;11.80;1.00;;;;;;6245695;22;20428;-80
2022/10/27 01:28:25;;;;;;;15.17;10.00;;;11.80;1.00;;;;;;6276253;22;20479;-78
2022/10/27 01:31:06;;;;;;;13.93;9.53;;;11.80;1.00;;;;;;6283355;22;20394;-79
2022/10/27 01:33:46;;;;;;;14.90;10.40;;;11.80;1.00;;;;;;6321202;22;20441;-81
2022/10/27 01:36:40;;;;;;;14.87;9.90;;;11.80;1.00;;;;;;6306227;22;20393;-83
2022/10/27 01:39:17;;;;;;;15.33;9.67;;;11.90;1.00;;;;;;6262385;22;20427;-81
2022/10/27 01:42:17;;;;;;;15.17;10.40;;;11.90;1.00;;;;;;6280841;22;20421;-83
2022/10/27 01:44:50;;;;;;;16.70;10.83;;;11.90;1.00;;;;;;6321249;22;20423;-84
2022/10/27 01:47:26;;;;;;;14.67;10.97;;;11.90;1.00;;;;;;6323225;22;20504;-78
2022/10/27 01:49:57;;;;;;;18.47;10.53;;;12.00;1.00;;;;;;6315106;22;20519;-78
2022/10/27 01:52:56;;;;;;;13.80;9.50;;;12.00;1.00;;;;;;6316912;22;20401;-81
2022/10/27 01:55:39;;;;;;;14.73;9.80;;;12.00;1.00;;;;;;6252523;22;20393;-77
2022/10/27 01:58:36;;;;;;;15.67;10.60;;;11.90;1.00;;;;;;6309727;22;20467;-83
2022/10/27 02:01:36;;;;;;;17.30;9.53;;;11.90;1.00;;;;;;6307632;22;20456;-82
2022/10/27 02:04:26;;;;;;;14.40;9.30;;;11.80;1.00;;;;;;6319759;22;20400;-80
2022/10/27 02:07:09;;;;;;;15.10;10.53;;;11.80;1.00;;;;;;6305139;22;20393;-80
2022/10/27 02:09:49;;;;;;;15.50;11.23;;;11.90;1.00;;;;;;6317924;22;21031;-78
2022/10/27 02:12:26;;;;;;;13.80;10.33;;;11.90;1.00;;;;;;6317875;22;20540;-76
2022/10/27 02:14:58;;;;;;;16.30;10.50;;;11.90;1.00;;;;;;6300284;22;20375;-79
2022/10/27 02:17:35;;;;;;;16.50;10.40;;;11.90;1.00;;;;;;6289799;22;20429;-80
2022/10/27 02:20:19;;;;;;;15.00;10.20;;;11.90;1.00;;;;;;6300288;22;20409;-77
2022/10/27 02:22:51;;;;;;;14.80;10.60;;;11.80;1.00;;;;;;6320340;22;20459;-83
2022/10/27 02:25:28;;;;;;;15.03;10.40;;;11.80;1.00;;;;;;6304143;22;20426;-79
2022/10/27 02:28:18;;;;;;;15.10;10.57;;;11.80;1.00;;;;;;6304942;22;20395;-76
2022/10/27 02:30:48;;;;;;;18.53;11.27;;;11.80;1.00;;;;;;6284016;22;20403;-78
2022/10/27 02:33:19;;;;;;;15.23;10.30;;;11.70;1.00;;;;;;6292186;22;20453;-82
2022/10/27 02:35:51;;;;;;;19.00;10.73;;;11.70;1.00;;;;;;6301045;22;20415;-79
2022/10/27 02:38:18;;;;;;;14.80;11.00;;;11.60;1.00;;;;;;6303499;22;20441;-80
2022/10/27 02:40:48;;;;;;;14.90;9.90;;;11.50;1.00;;;;;;6289785;22;20389;-80
2022/10/27 02:43:16;;;;;;;17.80;10.67;;;11.50;1.00;;;;;;6311648;22;20448;-79
2022/10/27 02:45:48;;;;;;;18.67;10.50;;;11.50;1.00;;;;;;6293703;22;20409;-84
2022/10/27 02:48:17;;;;;;;16.23;11.13;;;11.60;1.00;;;;;;6310902;22;20402;-84
2022/10/27 02:51:06;;;;;;;14.30;10.07;;;11.60;1.00;;;;;;6292785;22;20383;-83
2022/10/27 02:53:36;;;;;;;16.57;10.30;;;11.50;1.00;;;;;;6314593;22;20434;-81
2022/10/27 02:56:12;;;;;;;15.60;10.43;;;11.50;1.00;;;;;;6318170;22;20404;-81
2022/10/27 02:58:40;;;;;;;17.77;11.37;;;11.50;1.00;;;;;;6299658;22;20419;-81
2022/10/27 03:01:10;;;;;;;16.80;11.30;;;11.50;1.00;;;;;;6306219;22;20473;-79
2022/10/27 03:03:40;;;;;;;17.27;10.53;;;11.50;1.00;;;;;;6304343;22;21245;-83
2022/10/27 03:06:08;;;;;;;14.43;9.60;;;11.50;1.00;;;;;;6311026;22;20445;-83
2022/10/27 03:08:41;;;;;;;14.23;10.27;;;11.50;1.00;;;;;;6320935;22;20450;-79
2022/10/27 03:11:17;;;;;;;15.57;10.13;;;11.60;1.00;;;;;;6282495;22;20390;-81
2022/10/27 03:13:48;;;;;;;15.93;10.50;;;11.60;1.00;;;;;;6305074;22;20401;-81
2022/10/27 03:16:18;;;;;;;15.70;10.73;;;11.60;1.00;;;;;;6307143;22;21054;-80
2022/10/27 03:18:50;;;;;;;17.00;10.40;;;11.50;1.00;;;;;;6310832;22;20413;-82
2022/10/27 03:21:30;;;;;;;17.17;9.80;;;11.50;1.00;;;;;;6300248;22;20465;-81
2022/10/27 03:24:03;;;;;;;15.07;10.60;;;11.40;1.00;;;;;;6293757;22;20440;-82
2022/10/27 03:26:30;;;;;;;20.27;12.17;;;11.40;1.00;;;;;;6293062;22;20385;-82
2022/10/27 03:28:58;;;;;;;18.33;10.03;;;11.40;1.00;;;;;;6270380;22;20490;-80
2022/10/27 03:31:29;;;;;;;18.27;10.20;;;11.30;1.00;;;;;;6286688;22;20397;-84
2022/10/27 03:34:09;;;;;;;16.77;10.40;;;11.30;1.00;;;;;;6281166;22;20422;-84
2022/10/27 03:36:38;;;;;;;16.60;11.10;;;11.30;1.00;;;;;;6304738;22;20455;-84
2022/10/27 03:39:08;;;;;;;16.87;11.17;;;11.30;1.00;;;;;;6311186;22;20419;-81
2022/10/27 03:41:47;;;;;;;18.90;11.40;;;11.20;1.00;;;;;;6325041;22;20397;-83
2022/10/27 03:44:13;;;;;;;14.60;10.70;;;11.20;1.00;;;;;;6310487;22;20436;-84
2022/10/27 03:46:48;;;;;;;17.77;11.40;;;11.00;1.00;;;;;;6321886;22;20487;-80
2022/10/27 03:49:16;;;;;;;17.40;11.13;;;11.00;1.00;;;;;;6305657;22;20416;-80
2022/10/27 03:51:51;;;;;;;20.00;12.77;;;11.00;1.00;;;;;;6323819;22;20374;-84
2022/10/27 03:54:20;;;;;;;15.93;11.23;;;10.90;1.00;;;;;;6296633;22;20448;-85
2022/10/27 03:56:47;;;;;;;16.40;10.40;;;10.80;1.00;;;;;;6309456;22;20392;-83
2022/10/27 03:59:29;;;;;;;13.37;9.97;;;10.80;1.00;;;;;;6324524;22;20389;-80
2022/10/27 04:02:00;;;;;;;20.63;10.57;;;10.90;1.00;;;;;;6317968;22;20402;-82
2022/10/27 04:04:30;;;;;;;15.80;11.73;;;10.90;1.00;;;;;;6307493;22;20465;-80
2022/10/27 04:06:59;;;;;;;16.13;10.40;;;10.90;1.00;;;;;;6322852;22;20400;-80
2022/10/27 04:09:30;;;;;;;16.43;10.60;;;10.90;1.00;;;;;;6296223;22;20404;-83
2022/10/27 04:11:57;;;;;;;16.63;11.80;;;10.90;1.00;;;;;;6274002;22;20432;-81
2022/10/27 04:14:28;;;;;;;16.53;11.60;;;10.90;1.00;;;;;;6307938;22;20426;-83
2022/10/27 04:17:13;;;;;;;17.80;11.60;;;10.90;1.00;;;;;;6311439;22;20380;-83
2022/10/27 04:19:40;;;;;;;19.33;11.10;;;10.80;1.00;;;;;;6311147;22;21085;-83
2022/10/27 04:22:11;;;;;;;17.80;11.70;;;10.70;1.00;;;;;;6305112;22;20472;-80
2022/10/27 04:24:40;;;;;;;19.70;12.20;;;10.70;1.00;;;;;;6313045;22;20433;-82
2022/10/27 04:27:10;;;;;;;23.40;13.97;;;10.70;1.00;;;;;;6279859;22;20414;-84
2022/10/27 04:32:21;;;;;;;19.27;12.83;;;10.80;1.00;;;;;;6275715;22;20432;-85
2022/10/27 04:34:51;;;;;;;18.37;12.30;;;10.80;1.00;;;;;;6288780;22;20462;-84
2022/10/27 04:37:27;;;;;;;22.17;12.73;;;10.80;1.00;;;;;;6291493;22;20417;-80
2022/10/27 04:40:07;;;;;;;17.97;12.13;;;10.90;1.00;;;;;;6278684;22;20416;-83
2022/10/27 04:42:49;;;;;;;18.10;12.57;;;10.90;1.00;;;;;;6278949;22;20471;-83
2022/10/27 04:45:19;;;;;;;25.33;17.33;;;10.70;1.00;;;;;;6292089;22;20412;-83
2022/10/27 04:47:48;;;;;;;21.70;12.93;;;10.80;1.00;;;;;;6263859;22;20396;-81
2022/10/27 04:50:18;;;;;;;17.17;11.30;;;10.80;1.00;;;;;;6305268;22;20416;-81
2022/10/27 04:53:19;;;;;;;18.53;11.73;;;10.80;1.00;;;;;;6280326;22;20398;-79
2022/10/27 04:55:51;;;;;;;18.50;12.03;;;10.90;1.00;;;;;;6269713;22;20404;-83
2022/10/27 04:58:18;;;;;;;18.27;12.90;;;10.90;1.00;;;;;;6301097;22;20414;-80
2022/10/27 05:00:52;;;;;;;20.07;13.00;;;10.80;1.00;;;;;;6273108;22;20435;-80
2022/10/27 05:03:19;;;;;;;20.77;12.30;;;10.80;1.00;;;;;;6310460;22;21152;-81
2022/10/27 05:05:53;;;;;;;17.33;11.30;;;10.80;1.00;;;;;;6291642;22;20412;-85
2022/10/27 05:08:28;;;;;;;16.83;12.00;;;10.90;1.00;;;;;;6288579;22;20447;-81
2022/10/27 05:10:56;;;;;;;19.27;12.97;;;10.90;1.00;;;;;;6302939;22;20459;-81
2022/10/27 05:13:29;;;;;;;20.40;14.47;;;10.90;1.00;;;;;;6282107;22;20437;-83
2022/10/27 05:16:00;;;;;;;18.90;12.77;;;10.90;1.00;;;;;;6278279;22;20498;-82
2022/10/27 05:18:29;;;;;;;21.37;12.30;;;10.90;1.00;;;;;;6312307;22;20397;-84
2022/10/27 05:20:58;;;;;;;18.67;12.20;;;10.90;1.00;;;;;;6286106;22;20592;-82
2022/10/27 05:23:32;;;;;;;19.33;13.10;;;10.80;1.00;;;;;;6301426;22;20398;-82
2022/10/27 05:25:59;;;;;;;16.47;12.30;;;10.80;1.00;;;;;;6294080;22;20457;-83
2022/10/27 05:28:29;;;;;;;17.23;11.77;;;10.70;1.00;;;;;;6280477;22;20468;-82
2022/10/27 05:30:59;;;;;;;18.67;13.27;;;10.70;1.00;;;;;;6287166;22;20407;-82
2022/10/27 05:33:30;;;;;;;17.80;10.97;;;10.70;1.00;;;;;;6292167;22;20826;-82
2022/10/27 05:35:59;;;;;;;17.70;12.33;;;10.70;1.00;;;;;;6274351;22;21352;-81
2022/10/27 05:38:26;;;;;;;23.97;12.90;;;10.80;1.00;;;;;;6281251;22;20415;-84
2022/10/27 05:40:58;;;;;;;21.37;14.10;;;10.80;1.00;;;;;;6309647;22;20501;-78
2022/10/27 05:43:30;;;;;;;22.47;13.33;;;10.80;1.00;;;;;;6293460;22;20421;-81
2022/10/27 05:46:00;;;;;;;19.50;12.50;;;10.80;1.00;;;;;;6281362;22;20466;-81
2022/10/27 05:48:28;;;;;;;21.37;13.80;;;10.80;1.00;;;;;;6312292;22;20421;-80
2022/10/27 05:50:55;;;;;;;19.73;13.87;;;10.80;1.00;;;;;;6288083;22;20408;-80
2022/10/27 05:53:22;;;;;;;19.03;12.30;;;10.80;1.00;;;;;;6284313;22;20470;-78
2022/10/27 05:55:54;;;;;;;21.10;13.67;;;10.80;1.00;;;;;;6283310;22;20456;-81
2022/10/27 06:01:08;;;;;;;21.40;13.70;;;10.80;1.00;;;;;;6269925;22;20452;-81
2022/10/27 06:03:35;;;;;;;19.80;13.07;;;10.80;1.00;;;;;;6281041;22;20528;-80
2022/10/27 06:06:06;;;;;;;18.20;11.70;;;10.80;1.00;;;;;;6280388;22;20440;-81
2022/10/27 06:08:35;;;;;;;18.90;13.00;;;10.90;1.00;;;;;;6283765;22;20913;-82
2022/10/27 06:11:08;;;;;;;18.90;13.17;;;10.90;1.00;;;;;;6283827;22;20433;-81
2022/10/27 06:13:39;;;;;;;15.70;13.90;;;10.80;1.00;;;;;;6285894;22;21161;-81
2022/10/27 06:16:07;;;;;;;19.03;13.80;;;10.70;1.00;;;;;;6283548;22;20451;-83
2022/10/27 06:18:37;;;;;;;16.60;14.83;;;10.80;1.00;;;;;;6288480;22;20500;-83
2022/10/27 06:21:16;;;;;;;16.70;14.57;;;10.80;1.00;;;;;;6284829;22;20467;-82
2022/10/27 06:23:56;;;;;;;18.57;13.43;;;10.90;1.00;;;;;;6286093;22;21218;-83
2022/10/27 06:26:25;;;;;;;16.77;15.00;;;11.00;1.00;;;;;;6309832;22;20428;-83
2022/10/27 06:29:16;;;;;;;15.57;13.90;;;11.10;1.00;;;;;;6317716;22;20423;-84
2022/10/27 06:31:45;;;;;;;21.40;15.30;;;11.20;1.00;;;;;;6318244;22;20899;-82
2022/10/27 06:34:19;;;;;;;18.33;14.83;;;11.30;1.00;;;;;;6319807;22;20429;-83
2022/10/27 06:36:46;;;;;;;18.30;15.03;;;11.20;1.00;;;;;;6319123;22;20461;-79
2022/10/27 06:39:17;;;;;;;17.97;14.37;;;11.20;1.00;;;;;;6316636;22;20408;-80
2022/10/27 06:41:44;;;;;;;22.90;15.67;;;11.30;1.00;;;;;;6311363;22;20412;-80
2022/10/27 06:44:15;;;;;;;20.90;16.87;;;11.40;1.00;;;;;;6314276;22;20463;-79
2022/10/27 06:46:45;;;;;;;20.27;15.90;;;11.40;1.00;;;;;;6320723;22;20405;-83
2022/10/27 06:49:16;;;;;;;22.47;16.27;;;11.50;1.00;;;;;;6321913;22;20452;-83
2022/10/27 06:51:47;;;;;;;21.73;16.47;;;11.60;1.00;;;;;;6322491;22;20393;-81
2022/10/27 06:54:14;;;;;;;23.17;17.90;;;11.50;1.00;;;;;;6326197;22;20464;-82
2022/10/27 06:56:57;;;;;;;25.33;17.03;;;11.60;1.00;;;;;;6320927;22;20384;-83
2022/10/27 06:59:28;;;;;;;21.07;15.83;;;11.60;1.00;;;;;;6321329;22;20407;-82
2022/10/27 07:01:57;;;;;;;25.87;16.63;;;11.60;1.00;;;;;;6322625;22;21260;-84
2022/10/27 07:04:27;;;;;;;19.23;16.07;;;11.60;1.00;;;;;;6309464;22;20415;-86
2022/10/27 07:06:53;;;;;;;20.53;15.90;;;11.70;1.00;;;;;;6322789;22;20477;-83
2022/10/27 07:09:24;;;;;;;24.27;16.13;;;11.70;1.00;;;;;;6320211;22;21258;-80
2022/10/27 07:11:57;;;;;;;28.37;17.17;;;11.80;1.00;;;;;;6320396;22;21095;-83
2022/10/27 07:14:28;;;;;;;22.23;15.37;;;11.90;1.00;;;;;;6325976;22;20382;-85
2022/10/27 07:19:58;;;;;;;19.13;14.40;;;12.10;1.00;;;;;;6316923;22;20426;-82
2022/10/27 07:26:39;;;;;;;19.30;17.40;;;12.30;1.00;;;;;;6322735;22;20384;-83
2022/10/27 07:29:07;;;;;;;21.83;17.53;;;12.50;1.00;;;;;;6307349;22;20436;-83
2022/10/27 07:32:07;;;;;;;20.23;17.30;;;12.60;1.00;;;;;;6328180;22;20443;-84
2022/10/27 07:34:37;;;;;;;18.13;16.00;;;12.70;1.00;;;;;;6321659;22;20468;-82
2022/10/27 07:37:14;;;;;;;17.60;15.80;;;12.80;1.00;;;;;;6306369;22;20408;-81
2022/10/27 07:39:50;;;;;;;20.63;16.27;;;13.00;1.00;;;;;;6320168;22;20411;-82
2022/10/27 07:42:17;;;;;;;23.73;16.40;;;13.10;1.00;;;;;;6318654;22;20398;-84
2022/10/27 07:44:47;;;;;;;16.60;14.90;;;13.30;1.00;;;;;;6305056;22;20415;-82
2022/10/27 07:47:18;;;;;;;17.90;15.77;;;13.50;1.00;;;;;;6324387;22;20420;-86
2022/10/27 07:49:46;;;;;;;17.97;15.33;;;13.60;1.00;;;;;;6277190;22;20418;-82
2022/10/27 07:52:15;;;;;;;20.40;18.27;;;13.80;1.00;;;;;;6301685;22;20539;-81
2022/10/27 07:54:55;;;;;;;18.30;14.10;;;14.00;1.00;;;;;;6286529;22;20380;-81
2022/10/27 07:57:25;;;;;;;19.63;14.03;;;14.20;1.00;;;;;;6304439;22;20942;-80
2022/10/27 07:59:52;;;;;;;14.70;12.90;;;14.40;1.00;;;;;;6273716;22;20443;-84
2022/10/27 08:02:24;;;;;;;13.93;12.03;;;14.60;1.00;;;;;;6292725;22;20429;-81
2022/10/27 08:04:56;;;;;;;14.20;12.83;;;14.80;1.00;;;;;;6311151;22;20430;-84
2022/10/27 08:07:25;;;;;;;15.13;11.97;;;14.90;1.00;;;;;;6323309;22;20415;-82
2022/10/27 08:10:15;;;;;;;14.53;11.13;;;15.10;1.00;;;;;;6305309;22;20432;-84
2022/10/27 08:12:47;;;;;;;16.37;12.70;;;15.20;1.00;;;;;;6287432;22;21294;-77
2022/10/27 08:15:17;;;;;;;13.37;11.60;;;15.40;1.00;;;;;;6322937;22;20409;-83
2022/10/27 08:17:55;;;;;;;15.80;10.40;;;15.80;1.00;;;;;;6313697;22;20415;-83
2022/10/27 08:20:30;;;;;;;15.17;10.80;;;16.20;1.00;;;;;;6325084;22;20430;-79
2022/10/27 08:23:09;;;;;;;12.23;10.93;;;16.30;1.00;;;;;;6308400;22;20470;-81
2022/10/27 08:25:45;;;;;;;14.27;10.30;;;16.50;1.00;;;;;;6329728;22;20404;-85
2022/10/27 08:28:18;;;;;;;12.13;10.83;;;16.70;1.00;;;;;;6324957;22;20380;-81
2022/10/27 08:30:51;;;;;;;13.63;9.67;;;16.80;1.00;;;;;;6320601;22;20412;-84
2022/10/27 08:33:18;;;;;;;11.57;9.17;;;17.00;1.00;;;;;;6330084;22;20412;-85
2022/10/27 08:35:45;;;;;;;11.37;9.23;;;16.90;1.00;;;;;;6329796;22;20440;-88
2022/10/27 08:38:18;;;;;;;12.67;9.63;;;16.80;1.00;;;;;;6328730;22;20453;-84
2022/10/27 08:41:04;;;;;;;11.17;9.93;;;16.60;1.00;;;;;;6323126;22;20439;-85
2022/10/27 08:44:08;;;;;;;11.80;9.87;;;16.50;1.00;;;;;;6325878;22;20417;-83
2022/10/27 08:46:46;;;;;;;11.70;8.20;;;16.50;1.00;;;;;;6305514;22;21215;-82
2022/10/27 08:49:39;;;;;;;10.20;8.83;;;16.50;1.00;;;;;;6312012;22;20495;-84
2022/10/27 08:52:27;;;;;;;11.70;8.57;;;16.60;1.00;;;;;;6323544;22;20443;-86
2022/10/27 08:55:06;;;;;;;10.07;8.80;;;16.80;1.00;;;;;;6323935;22;20446;-84
2022/10/27 08:57:49;;;;;;;15.63;9.90;;;17.00;1.00;;;;;;6317276;22;20463;-79
2022/10/27 09:00:16;;;;;;;16.30;10.43;;;17.20;1.00;;;;;;6305833;22;20505;-78
2022/10/27 09:03:17;;;;;;;14.90;8.17;;;17.40;1.00;;;;;;6318046;22;20456;-81
2022/10/27 09:06:04;;;;;;;12.30;8.47;;;17.50;1.00;;;;;;6317471;22;20416;-83
2022/10/27 09:08:43;;;;;;;17.27;10.00;;;17.70;1.00;;;;;;6325928;22;20871;-81
2022/10/27 09:11:25;;;;;;;13.67;8.87;;;18.00;1.00;;;;;;6303600;22;20772;-79
2022/10/27 09:14:14;;;;;;;12.77;8.00;;;18.70;1.00;;;;;;6328159;22;20435;-82
2022/10/27 09:16:53;;;;;;;22.00;10.13;;;19.60;1.00;;;;;;6293288;22;20396;-81
2022/10/27 09:19:36;;;;;;;10.97;7.60;;;20.70;1.00;;;;;;6333072;22;20400;-85
2022/10/27 09:22:16;;;;;;;9.50;7.87;;;20.90;1.00;;;;;;6324678;22;20401;-85
2022/10/27 09:24:58;;;;;;;9.57;6.93;;;20.90;1.00;;;;;;6325724;22;20414;-85
2022/10/27 09:27:28;;;;;;;9.63;7.73;;;20.60;1.00;;;;;;6328540;22;21200;-82
2022/10/27 09:30:00;;;;;;;12.83;7.67;;;20.50;1.00;;;;;;6317931;22;20427;-79
2022/10/27 09:32:36;;;;;;;11.70;8.03;;;20.30;1.00;;;;;;6314691;22;20478;-79
2022/10/27 09:35:11;;;;;;;10.80;7.80;;;20.30;1.00;;;;;;6318521;22;20426;-79
2022/10/27 09:37:43;;;;;;;9.40;7.17;;;20.30;1.00;;;;;;6315996;22;20434;-78
2022/10/27 09:40:20;;;;;;;9.93;7.27;;;20.20;1.00;;;;;;6293676;22;20423;-83
2022/10/27 09:42:52;;;;;;;12.67;8.93;;;20.10;1.00;;;;;;6277703;22;20443;-79
2022/10/27 09:45:21;;;;;;;12.57;7.90;;;20.10;1.00;;;;;;6317966;22;20447;-79
2022/10/27 09:47:53;;;;;;;12.53;8.10;;;20.20;1.00;;;;;;6314567;22;20478;-80
2022/10/27 09:50:24;;;;;;;11.23;7.40;;;20.30;1.00;;;;;;6277052;22;21426;-80
2022/10/27 09:52:58;;;;;;;11.70;8.53;;;20.30;1.00;;;;;;6314460;22;20439;-79
2022/10/27 09:55:46;;;;;;;13.37;8.57;;;20.40;1.00;;;;;;6300333;22;20423;-80
2022/10/27 09:58:18;;;;;;;10.80;7.37;;;20.50;1.00;;;;;;6318816;22;20404;-79
2022/10/27 10:00:48;;;;;;;10.20;7.60;;;20.40;1.00;;;;;;6304181;22;20412;-78
2022/10/27 10:03:20;;;;;;;9.83;7.40;;;20.30;1.00;;;;;;6313686;22;20427;-81
2022/10/27 10:06:00;;;;;;;10.30;7.10;;;20.30;1.00;;;;;;6298758;22;20427;-80
2022/10/27 10:08:29;;;;;;;13.87;7.80;;;20.50;1.00;;;;;;6332767;22;20780;-79
2022/10/27 10:11:00;;;;;;;9.00;6.67;;;20.80;1.00;;;;;;6300967;22;20529;-80
2022/10/27 10:13:29;;;;;;;13.20;7.40;;;21.30;1.00;;;;;;6317372;22;20427;-78
2022/10/27 10:16:08;;;;;;;17.00;8.03;;;21.60;1.00;;;;;;6309102;22;20432;-78
2022/10/27 10:18:37;;;;;;;14.13;8.07;;;21.90;1.00;;;;;;6284350;22;20420;-80
2022/10/27 10:21:10;;;;;;;12.43;7.00;;;22.10;1.00;;;;;;6307818;22;21251;-80
2022/10/27 10:23:47;;;;;;;10.47;6.77;;;22.60;1.00;;;;;;6310560;22;20466;-80
2022/10/27 10:26:18;;;;;;;11.80;6.77;;;23.00;1.00;;;;;;6297529;22;20536;-80
2022/10/27 10:28:51;;;;;;;9.53;5.67;;;23.20;1.00;;;;;;6298632;22;20416;-80
2022/10/27 10:31:23;;;;;;;9.83;5.80;;;23.40;1.00;;;;;;6334805;22;20452;-78
2022/10/27 10:33:56;;;;;;;8.30;5.63;;;23.70;1.00;;;;;;6315041;22;20439;-80
2022/10/27 10:36:29;;;;;;;11.43;6.10;;;23.90;1.00;;;;;;6306724;22;20440;-81
2022/10/27 10:38:58;;;;;;;8.33;6.20;;;24.30;1.00;;;;;;6303917;22;20480;-79
2022/10/27 10:41:26;;;;;;;8.43;6.30;;;24.20;1.00;;;;;;6306945;22;20852;-80
2022/10/27 10:44:09;;;;;;;10.83;5.60;;;24.50;1.00;;;;;;6316631;22;20829;-79
2022/10/27 10:46:40;;;;;;;10.73;6.23;;;24.30;1.00;;;;;;6310929;22;20464;-81
2022/10/27 10:49:21;;;;;;;9.67;5.13;;;24.30;1.00;;;;;;6301998;22;20430;-78
2022/10/27 10:51:56;;;;;;;12.00;6.53;;;24.40;1.00;;;;;;6314708;22;20424;-80
2022/10/27 10:54:27;;;;;;;9.43;5.47;;;24.40;1.00;;;;;;6315010;22;20464;-79
2022/10/27 10:56:57;;;;;;;9.23;4.83;;;24.70;1.00;;;;;;6315207;22;20460;-79
2022/10/27 10:59:30;;;;;;;7.67;4.33;;;25.20;1.00;;;;;;6306719;22;20468;-80
2022/10/27 11:02:05;;;;;;;7.47;4.67;;;25.30;1.00;;;;;;6302669;22;20424;-79
2022/10/27 11:04:39;;;;;;;8.93;4.10;;;25.50;1.00;;;;;;6315438;22;20557;-79
2022/10/27 11:07:21;;;;;;;10.43;4.17;;;25.70;1.00;;;;;;6264278;22;20427;-79
2022/10/27 11:09:55;;;;;;;11.63;4.10;;;26.30;1.00;;;;;;6331712;22;20896;-79
2022/10/27 11:12:30;;;;;;;9.93;4.40;;;26.50;1.00;;;;;;6301021;22;20848;-79
2022/10/27 11:15:03;;;;;;;10.37;5.10;;;26.50;1.00;;;;;;6313340;22;20444;-79
2022/10/27 11:17:35;;;;;;;7.57;4.03;;;27.00;1.00;;;;;;6300728;22;20500;-79
2022/10/27 11:20:31;;;;;;;9.43;3.37;;;27.10;1.00;;;;;;6299615;22;20414;-79
2022/10/27 11:23:01;;;;;;;9.30;4.57;;;27.20;1.00;;;;;;6273198;22;20389;-80
2022/10/27 11:25:32;;;;;;;8.13;4.30;;;27.00;1.00;;;;;;6291456;22;20451;-80
2022/10/27 11:28:09;;;;;;;9.17;4.47;;;26.90;1.00;;;;;;6297404;22;20454;-80
2022/10/27 11:30:46;;;;;;;7.90;3.10;;;26.90;1.00;;;;;;6312033;22;20421;-78
2022/10/27 11:33:25;;;;;;;10.20;3.60;;;27.20;1.00;;;;;;6316570;22;20425;-80
2022/10/27 11:36:09;;;;;;;13.20;3.77;;;27.30;1.00;;;;;;6286757;22;20475;-81
2022/10/27 11:38:48;;;;;;;9.37;3.40;;;27.70;1.00;;;;;;6293211;22;20488;-80
2022/10/27 11:41:19;;;;;;;7.20;2.97;;;27.70;1.00;;;;;;6313880;22;20454;-78
2022/10/27 11:43:54;;;;;;;8.20;3.50;;;27.60;1.00;;;;;;6313112;22;20782;-79
2022/10/27 11:46:32;;;;;;;8.77;4.10;;;27.40;1.00;;;;;;6312161;22;20420;-81
2022/10/27 11:49:12;;;;;;;10.20;3.83;;;27.10;1.00;;;;;;6300892;22;20472;-79
2022/10/27 11:51:46;;;;;;;9.47;3.60;;;27.00;1.00;;;;;;6301477;22;20485;-80
2022/10/27 11:54:19;;;;;;;8.67;3.97;;;26.60;1.00;;;;;;6302695;22;20414;-81
2022/10/27 11:57:00;;;;;;;8.10;3.30;;;26.50;1.00;;;;;;6288185;22;20912;-81
2022/10/27 11:59:41;;;;;;;9.40;3.57;;;27.00;1.00;;;;;;6303506;22;20428;-81
2022/10/27 12:02:29;;;;;;;8.20;3.60;;;28.40;1.00;;;;;;6234670;22;20392;-81
2022/10/27 12:05:09;;;;;;;8.97;3.33;;;30.20;1.00;;;;;;6284424;22;20412;-82
2022/10/27 12:07:57;;;;;;;8.33;3.47;;;30.40;1.00;;;;;;6312679;22;20433;-82
2022/10/27 12:10:35;;;;;;;9.77;3.43;;;30.10;1.00;;;;;;6326066;22;20418;-82
2022/10/27 12:13:15;;;;;;;13.57;7.63;;;30.10;1.00;;;;;;6318761;22;20437;-80
2022/10/27 12:15:49;;;;;;;7.40;3.60;;;30.00;1.00;;;;;;6301986;22;20418;-81
2022/10/27 12:18:31;;;;;;;9.60;3.13;;;30.40;1.00;;;;;;6288719;22;20802;-81
2022/10/27 12:21:06;;;;;;;8.40;3.13;;;30.00;1.00;;;;;;6297738;22;20424;-80
2022/10/27 12:26:44;;;;;;;9.80;4.60;;;27.60;1.00;;;;;;6319637;22;20519;-82
2022/10/27 12:29:18;;;;;;;13.60;4.00;;;26.60;1.00;;;;;;6286870;22;20423;-84
2022/10/27 12:32:10;;;;;;;9.87;4.07;;;26.20;1.00;;;;;;6275573;22;20424;-80
2022/10/27 12:34:44;;;;;;;8.37;3.73;;;25.90;1.00;;;;;;6259054;22;20431;-81
2022/10/27 12:37:37;;;;;;;8.90;3.73;;;26.40;1.00;;;;;;6268849;22;20415;-81
2022/10/27 12:40:15;;;;;;;7.93;3.40;;;26.60;1.00;;;;;;6279006;22;20485;-82
2022/10/27 12:42:50;;;;;;;7.30;3.43;;;27.40;1.00;;;;;;6235048;22;20474;-84
2022/10/27 12:45:40;;;;;;;7.93;2.77;;;27.60;1.00;;;;;;6258643;22;20927;-83
2022/10/27 12:48:18;;;;;;;9.70;3.83;;;26.90;1.00;;;;;;6213558;22;20384;-81
2022/10/27 12:50:57;;;;;;;11.20;3.50;;;26.50;1.00;;;;;;6243045;22;20415;-82
2022/10/27 12:53:37;;;;;;;6.53;2.50;;;26.10;1.00;;;;;;6272488;22;21166;-81
2022/10/27 12:56:11;;;;;;;9.60;4.53;;;25.80;1.00;;;;;;6268749;22;20950;-80
2022/10/27 12:58:51;;;;;;;7.47;3.33;;;25.70;1.00;;;;;;6242439;22;20424;-84
2022/10/27 13:01:33;;;;;;;8.00;2.97;;;25.90;1.00;;;;;;6283188;22;20431;-83
2022/10/27 13:04:47;;;;;;;7.20;2.33;;;26.20;1.00;;;;;;6268789;22;20956;-83
2022/10/27 13:07:36;;;;;;;6.70;2.90;;;26.80;1.00;;;;;;6280625;22;20416;-81
2022/10/27 13:10:37;;;;;;;9.00;3.47;;;26.90;1.00;;;;;;6285783;22;20446;-82
2022/10/27 13:13:36;;;;;;;9.30;3.47;;;26.50;1.00;;;;;;6280845;22;20443;-80
2022/10/27 13:16:15;;;;;;;6.30;2.43;;;26.20;1.00;;;;;;6255891;22;20494;-82
2022/10/27 13:19:01;;;;;;;9.47;2.60;;;25.60;1.00;;;;;;6239333;22;20847;-78
2022/10/27 13:21:39;;;;;;;7.90;2.70;;;25.40;1.00;;;;;;6246393;22;20431;-80
2022/10/27 13:24:31;;;;;;;8.60;2.30;;;25.20;1.00;;;;;;6237073;22;20451;-81
2022/10/27 13:27:19;;;;;;;10.43;3.60;;;25.00;1.00;;;;;;6237577;22;20419;-80
2022/10/27 13:29:57;;;;;;;9.50;3.43;;;24.70;1.00;;;;;;6293256;22;20418;-81
2022/10/27 13:32:40;;;;;;;7.80;2.60;;;24.40;1.00;;;;;;6313397;22;20508;-82
2022/10/27 13:35:40;;;;;;;6.53;2.50;;;24.10;1.00;;;;;;6313245;22;20938;-81
2022/10/27 13:38:28;;;;;;;9.53;2.33;;;23.60;1.00;;;;;;6295714;22;20469;-82
2022/10/27 13:40:58;;;;;;;12.57;2.97;;;23.30;1.00;;;;;;6284746;22;20552;-82